Florida AWOS List, Phone Numbers

USA |  
| Search AWOS

Rocky Mountain States: Montana | Wyoming | Colorado | New Mexico

Complete weather reports: Florida

Legend: KFNL = METAR available Follow your local AWOS on AV Mobile = METAR available on AV Mobile
Station Florida Location Frequency Phone
KAQQICAO ID KAQQ Apalachicola, Apalachicola
KAAFFAA ID AAF, ASOS, KAAF 071153Z AUTO 32006KT 10SM CLR 02/01 A3016 Follow KAAF on AV Mobile APALACHICOLA MUNICIPAL AIRPORT 119.925 850-653-8271
KNAEICAO ID KNAE Astor, Bombing Range Detachment Astor
KAVOFAA ID AVO, AWOS-3 AVON PARK 118.725 863-453-4223
KAGRFAA ID AGR Avon Park Gunnery Range
KBOWFAA ID BOW, AWOS-3, KBOW 071222Z 30013G18KT 7SM OVC008 07/05 A3004 Follow KBOW on AV Mobile Bartow Municipal 123.775 863-533-9004
F95FAA ID F95, AWOS-AV, KAEJ 071245Z AUTO 28015G22KT 10SM CLR M01/M12 A3025 RMK AO2 T10061118 Follow  on AV Mobile BLOUNTSTOWN 119.350 850-674-1347
KBCTFAA ID BCT, AWOS-3, KBCT 071147Z 31017G22KT 10SM BKN020 11/08 A2996 Follow KBCT on AV Mobile Boca Raton, Boca Raton Airport 121.125 561-391-2696
K1J0FAA ID 1J0, K1J0 071158Z AUTO 29003KT 10SM CLR 01/M02 A3020 RMK AO2 SLP214 T00111022 10039 20011 53008 Follow K1J0 on AV Mobile TRI COUNTY AIRPORT
KBKVFAA ID BKV, ASOS, KBKV 071228Z 33014G21KT 10SM SCT009 BKN014 OVC030 08/04 A3008 RMK AO2 T00780044 Follow KBKV on AV Mobile BROOKSVILLE HERNANDO CO AIRPORT 134.725 352-799-5881
K1J4ICAO ID K1J4 Cape San Blas Coast Guard Station
KNZCICAO ID KNZC Cecil, Naval Air Station
KCLWFAA ID CLW, AWOS-3P, KCLW 071235Z AUTO 34015G21KT 10SM 09/06 A3007 RMK AO2 Follow KCLW on AV Mobile CLEARWATER 119.225 727-449-2184
2ISFAA ID 2IS, AWOS-3, KAEJ 071245Z AUTO 28015G22KT 10SM CLR M01/M12 A3025 RMK AO2 T10061118 Follow  on AV Mobile CLEWISTON 124.175 863-983-7020
KX53ICAO ID KX53 Clewiston
KCOFFAA ID COF, KCOF 071233Z AUTO 30020KT 10SM OVC009 08/07 A2995 RMK AO2 Follow KCOF on AV Mobile Cocoa / Patrick Air Force Base
KXMRFAA ID XMR, KXMR 071228Z AUTO 29019G25KT 10SM OVC009 08/07 A2994 RMK AO2 $ Follow KXMR on AV Mobile Cocoa Beach, Cape Canaveral Air Force Station Skid Strip
KCEWFAA ID CEW, ASOS, KCEW 071153Z AUTO 33007KT 10SM CLR 01/M04 A3023 Follow KCEW on AV Mobile CRESTVIEW SIKES AIRPORT 119.275 850-682-1237
KEGIFAA ID EGI, KEGI 071158Z AUTO 31005KT 10SM CLR 00/M05 A3020 RMK AO2 SLP230 T00021051 10033 21009 53010 $ Follow KEGI on AV Mobile Duke Field / Eglin Auxiliary
KCTYFAA ID CTY, KCTY 071153Z AUTO 32007KT 06/02 A3009 Follow KCTY on AV Mobile CROSS CITY AIRPORT
KCGCFAA ID CGC, AWOS-3, KCGC 071235Z AUTO 32006KT 10SM SCT016 BKN027 OVC050 06/03 A3009 RMK AO2 Follow KCGC on AV Mobile CRYSTAL RIVER 118.325 352-563-6600
KDABFAA ID DAB, ASOS, KDAB 071153Z 30011KT 10SM OVC008 07/06 A2997 Follow KDAB on AV Mobile DAYTONA BEACH INTERNATIONAL 386-253-7469
54JFAA ID 54J, AWOS-3P, KAEJ 071245Z AUTO 28015G22KT 10SM CLR M01/M12 A3025 RMK AO2 T10061118 Follow  on AV Mobile DEFUNIAK SPRINGS 118.725 850-892-0147
KDEDFAA ID DED, AWOS-3, KDED 071215Z AUTO 29007KT 07/05 A3001 RMK AO1 Follow KDED on AV Mobile DELAND 119.575 386-740-5811
KDTSFAA ID DTS, ASOS, KDTS 071153Z AUTO 35008KT 10SM CLR 05/M03 A3021 RMK AO2 SLP228 T00501028 10083 20050 53006 TSNO Follow KDTS on AV Mobile DESTIN-FT WALTON BEACH AIRPORT 133.925 850-654-7128
KX91ICAO ID KX91 Egmont Key Coast Guard Station
KFHBFAA ID FHB, AWOS-3, KFHB 071235Z AUTO 35010G19KT 10SM OVC010 07/05 A2998 RMK AO1 LTG DSNT E Follow KFHB on AV Mobile FERNANDINA BEACH 118.075 904-277-7323
KFXEFAA ID FXE, ASOS, KFXE 071153Z 30014G22KT 10SM FEW020 OVC095 11/07 A2997 Follow KFXE on AV Mobile FORT LAUDERDALE EXECUTIVE 954-772-2537
KFLLFAA ID FLL, ASOS, KFLL 071228Z 30015G24KT 10SM SCT002 BKN110 11/07 A2999 Follow KFLL on AV Mobile FORT LAUDERDALE/HOLLYWOOD 954-359-7857
KFMYFAA ID FMY, ASOS, KFMY 071153Z 34013KT 10SM OVC080 11/07 A3003 RMK AO2 SLP170 70067 T01060072 10122 20106 53012 Follow KFMY on AV Mobile FORT MYERS PAGE FIELD 239-936-2318
KRSWFAA ID RSW, ASOS, KRSW 071153Z AUTO 32010G18KT 10SM OVC075 11/06 A3004 Follow KRSW on AV Mobile FORT MYERS SW FL INTERNATIONAL AIRPORT 239-561-0966
KX82ICAO ID KX82 Fort Pierce Coast Guard Station
KFPRFAA ID FPR, ASOS, KFPR 071153Z AUTO 30009KT 10SM BKN015 09/08 A2995 Follow KFPR on AV Mobile FORT PIERCE ST LUCIE 772-489-4281
KX86ICAO ID KX86 Fowey Rocks Coast Guard Station
KX89ICAO ID KX89 Ft. Myers Beach Coast Guard Station
KGNVFAA ID GNV, ASOS, KGNV 071237Z 34011G19KT 10SM SCT013 OVC021 05/03 A3005 RMK AO2 T00500028 Follow KGNV on AV Mobile GAINESVILLE REGIONAL AIRPORT 352-335-8672
KHWOFAA ID HWO, ASOS, KHWO 071153Z 31013KT 10SM OVC095 12/08 A2999 RMK AO2 RAB01E29 SLP155 P0000 60002 70019 T01170078 10156 20117 53003 Follow KHWO on AV Mobile HOLLYWOOD NORTH PERRY AIRPORT 954-983-5904
X51FAA ID X51, AWOS-3, KAEJ 071245Z AUTO 28015G22KT 10SM CLR M01/M12 A3025 RMK AO2 T10061118 Follow  on AV Mobile HOMESTEAD 118.375 (305) 247-2791
KHSTFAA ID HST, KHST 071158Z AUTO 29010KT 10SM BKN085 13/09 A2999 RMK AO2 SLP159 60005 70082 T01270089 10160 20127 53011 Follow KHST on AV Mobile Homestead Air Force Base
KIMMFAA ID IMM, AWOS-3, KIMM 161355Z AUTO 10007KT FEW016 A3015 RMK A01 P000 Follow KIMM on AV Mobile IMMOKALEE 118.525 239-657-2038
KINFFAA ID INF, AWOS-3, KINF 071235Z AUTO 33004KT 10SM OVC013 06/05 A3009 RMK AO2 LTG DSNT NE Follow KINF on AV Mobile INVERNESS 119.975 352-341-0264
KX84ICAO ID KX84 Islamorada Coast Guard Station
KHEGFAA ID HEG, AWOS-3 JACKSONVILLE 119.275 904-695-0334
KCRGFAA ID CRG, ASOS, KCRG 071153Z AUTO 33012KT 10SM -RA OVC010 06/04 A3001 RMK AO2 CIG 007V013 SLP160 P0001 60012 7//// T00560044 10061 20056 53004 Follow KCRG on AV Mobile JACKSONVILLE CRAIG MUN 904-646-4670
KJAXFAA ID JAX, ASOS, KJAX 071156Z 34011G17KT 9SM -RA OVC011 05/04 A3001 Follow KJAX on AV Mobile JACKSONVILLE INTERNATIONAL 904-741-4304
KNIPFAA ID NIP, KNIP 071153Z 34017KT 8SM RA BKN010 OVC033 07/04 A3000 RMK AO2 SLP155 P0003 60027 70049 T00670044 10067 20061 56002 Follow KNIP on AV Mobile JACKSONVILLE NAVAL AIR STN
KVQQFAA ID VQQ, AWOS-3, KVQQ 071150Z 31011G16KT 7SM -RA FEW001 OVC008 05/04 A3002 Follow KVQQ on AV Mobile Jacksonville, Cecil Field Airport 125.275 904-778-6934
KNENFAA ID NEN NOLF WHITEHOUSE FIELD, FL
KX80ICAO ID KX80 Jupiter Inlet Coast Guard Station
KEYWFAA ID EYW, ASOS, KEYW 071220Z 35024G32KT 10SM FEW013 BKN021 BKN027 17/14 A3001 Follow KEYW on AV Mobile KEY WEST INTERNATIONAL AIRPORT 119.65 305-292-4046
KNQXFAA ID NQX, KNQX 071227Z 33022G35KT 4SM -RA FEW010 BKN019 BKN040 14/13 A3006 RMK AO2 PK WND 35035/1222 RAB22 PRESRR P0000 T01440128 $ Follow KNQX on AV Mobile KEY WEST NAVAL AIR STATION
K42JFAA ID 42J, AWOS-3, K42J 071235Z AUTO 33012G16KT 10SM OVC008 05/04 A3004 RMK AO1 TSNO Follow K42J on AV Mobile KEYSTONE HEIGHTS 124.275 352-473-8273
KLCQFAA ID LCQ, AWOS-3, KLCQ 071215Z AUTO 33006KT 10SM OVC032 04/03 A3005 RMK AO2 Follow KLCQ on AV Mobile LAKE CITY 120.675 386-754-9366
X07FAA ID X07, AWOS-3, KAEJ 071245Z AUTO 28015G22KT 10SM CLR M01/M12 A3025 RMK AO2 T10061118 Follow  on AV Mobile LAKE WALES 124.225 863-678-1334
KX81ICAO ID KX81 Lake Worth Inlet
KLALFAA ID LAL, AWOS-3PT, KLAL 071150Z 33007KT 10SM OVC008 08/07 A3003 Follow KLAL on AV Mobile Lakeland Regional 118.025 863-834-2030
KLEEFAA ID LEE, ASOS, KLEE 071153Z 31009KT 10SM OVC009 07/06 A3002 RMK AO2 SLP166 70028 T00720056 10072 20067 53000 Follow KLEE on AV Mobile LEESBURG REGIONAL AIRPORT 134.325 352-787-1565
24JFAA ID 24J, AWOS-3, KAEJ 071245Z AUTO 28015G22KT 10SM CLR M01/M12 A3025 RMK AO2 T10061118 Follow  on AV Mobile LIVE OAK 118.225 386-362-1731
KX88ICAO ID KX88 Marathon Coast Guard Station
KMTHFAA ID MTH, ASOS, KMTH 071153Z AUTO 36009KT 10SM FEW013 BKN023 OVC030 16/13 A3000 RMK AO2 SLP160 60003 70065 T01560133 10172 20156 53009 Follow KMTH on AV Mobile MARATHON AIRPORT 135.525 305-743-8373
KMKYFAA ID MKY, AWOS-3, KMKY 071235Z AUTO 34007KT 10SM BKN070 OVC090 12/06 A3004 RMK AO1 Follow KMKY on AV Mobile MARCO ISLAND 120.075 239-394-8187
KMAIFAA ID MAI, ASOS, KMAI 071153Z AUTO 31004KT 10SM CLR 01/M02 A3017 RMK AO1 SLP216 T00111022 10039 20011 53006 Follow KMAI on AV Mobile MARIANNA MUNICIPAL AIRPORT 133.525 850-482-6082
KHRTFAA ID HRT, KHRT 071158Z AUTO 35007KT 10SM CLR 01/M06 A3021 RMK AO2 SLP232 T00071056 10035 20007 53010 $ Follow KHRT on AV Mobile Hurlburt Field
KNRBFAA ID NRB, KNRB 071152Z AUTO 33008G17KT 8SM -RA OVC011 06/04 A3000 RMK AO2 RAE06B40 SLP158 P0001 60021 70055 T00560044 10067 20056 53006 $ Follow KNRB on AV Mobile MAYPORT NAVAL AIR FACILITY
KMLBFAA ID MLB, ASOS, KMLB 071153Z 30013KT 10SM BKN008 BKN013 08/07 A2994 Follow KMLB on AV Mobile MELBOURNE INTERNATIONAL 321-723-7403
KCOIFAA ID COI, AWOS-3 Merritt Island, Merritt Island Airport 119.025 321-986-8864
KTNTFAA ID TNT, AWOS-3 MIAMI 119.075 (239) 695-9198
KX87ICAO ID KX87 Miami Beach Coast Guard Station
KAMXICAO ID KAMX Miami Nexrad
KTMBFAA ID TMB, ASOS, KTMB 071153Z 31012KT 10SM BKN095 OVC120 12/09 A3000 Follow KTMB on AV Mobile KENDALL-TAMIAMI EXEC AIRPORT 305-235-1332
KMIAFAA ID MIA, ASOS, KMIA 071153Z 31011G24KT 10SM FEW020 BKN090 BKN250 12/07 A2999 Follow KMIA on AV Mobile MIAMI INTERNATIONAL AIRPORT 305-870-0235
KOPFFAA ID OPF, KOPF 071153Z 31020G25KT 10SM OVC095 12/08 A2998 Follow KOPF on AV Mobile MIAMI OPA LOCKA AIRPORT
KNFJFAA ID NFJ CHOCTAW, WHITING FIELD, NOLF
KNSEFAA ID NSE, KNSE 071156Z AUTO 32006KT 10SM CLR 01/M04 A3023 RMK AO2 SLP227 T00111044 10050 20006 53011 $ Follow KNSE on AV Mobile MILTON WHITING FIELD (NORTH)
KNDZFAA ID NDZ, KNDZ 071056Z AUTO 35007KT 10SM CLR 02/M06 A3021 RMK AO2 SLP219 T00221056 $ Follow KNDZ on AV Mobile MILTON WHITING FIELD (SOUTH)
KAPFFAA ID APF, ASOS, KAPF 071153Z 34007KT 10SM OVC070 12/08 A3004 Follow KAPF on AV Mobile NAPLES MUNICIPAL AIRPORT 239-643-9886
KRRFICAO ID KRRF New Port Richey, Tampa Bay Executive Airport
KEVBFAA ID EVB, AWOS-3, KEVB 071147Z 30009KT 7SM BKN008 07/06 A2993 RMK FIRST Follow KEVB on AV Mobile New Smyrna Beach, New Smyrna Beach Municipal Airport 124.625 386-409-4705
KOCFFAA ID OCF, AWOS-3, KOCF 071230Z 33012G20KT 10SM OVC012 06/03 A3006 Follow KOCF on AV Mobile Ocala, Ocala International Airport-Jim Taylor Field 128.125 352-237-8525
KOBEFAA ID OBE, AWOS-3, KOBE 071235Z AUTO 30014G18KT 10SM OVC014 08/07 A3000 RMK AO2 LTG DSNT NE Follow KOBE on AV Mobile Okeechobee County Airport 118.675 863-467-1148
KORLFAA ID ORL, ASOS, KORL 071236Z COR 30010KT 10SM OVC007 08/06 A3000 RMK AO2 T00830056 Follow KORL on AV Mobile ORLANDO EXECUTIVE AIRPORT 407-658-6753
KMCOFAA ID MCO, ASOS, KMCO 071153Z 28014KT 10SM OVC008 07/06 A3001 Follow KMCO on AV Mobile ORLANDO INTERNATIONAL AIRPORT 407-855-5235
KSFBFAA ID SFB, ASOS, KSFB 071153Z 29016KT 10SM OVC007 07/06 A3000 Follow KSFB on AV Mobile ORLANDO SANFORD AIRPORT 407-321-9384
KISMFAA ID ISM, AWOS-3, KISM 071145Z 30012G17KT 7SM OVC007 07/07 A3002 RMK FIRST Follow KISM on AV Mobile Orlando, Kissimmee Municipal Airport 128.775 407-847-0533
KOMNFAA ID OMN, AWOS-3, KOMN 071150Z 32012KT 3SM -RABR SCT008 BKN020 06/05 A2996 RMK FIRST Follow KOMN on AV Mobile Ormond Beach, Ormond Beach Municipal Airport 118.475 386-615-7084
28JFAA ID 28J, AWOS-3, KAEJ 071245Z AUTO 28015G22KT 10SM CLR M01/M12 A3025 RMK AO2 T10061118 Follow  on AV Mobile PALATKA 119.92 386-312-2212
KFINFAA ID FIN, AWOS-3, KFIN 071150Z 35010G25KT 5SM DZ SCT008 BKN038 OVC049 6/6 A2995 Follow KFIN on AV Mobile PALM COAST 128.325 386-437-7334
KECPFAA ID ECP, ASOS, KECP 071153Z 33007KT 10SM CLR 02/M02 A3018 Follow KECP on AV Mobile PANAMA CITY 119.975 850-235-7857
KPFNICAO ID KPFN, KPFN 030253Z VRB03KT 10SM FEW023 25/23 A2989 Follow KPFN on AV Mobile PANAMA CITY-BAY CTY INTERNATIONAL
KPAMFAA ID PAM, KPAM 071158Z AUTO 36006KT 10SM CLR 05/M02 A3018 RMK AO2 SLP223 T00451021 10069 20043 53009 $ Follow KPAM on AV Mobile Tyndall Air Force Base
KPNSFAA ID PNS, ASOS, KPNS 071153Z 33008KT 10SM CLR 02/M04 A3023 Follow KPNS on AV Mobile PENSACOLA REGIONAL AIRPORT 850-436-4799
KNPAFAA ID NPA, KNPA 071056Z AUTO 34005KT 10SM CLR 02/M03 A3022 RMK AO2 SLP233 T00221033 Follow KNPA on AV Mobile Pensacola, Naval Air Station
K40JFAA ID 40J, AWOS-3PT, K40J 071235Z AUTO 27005KT 10SM CLR 04/00 A3012 RMK AO2 LTG DSNT E T00350002 Follow K40J on AV Mobile PERRY-FOLEY AIRPORT 118.375 850-838-3526
FA54FAA ID FA54, Belfort CORAL CREEK
KPCMFAA ID PCM, AWOS-3, KPCM 071235Z AUTO 33005KT 10SM OVC011 09/08 A3007 RMK AO2 Follow KPCM on AV Mobile Plant City, Plant City Municipal Airport 120.025 813-764-8259
KPMPFAA ID PMP, ASOS, KPMP 071153Z 30016KT 10SM OVC100 11/08 A2996 RMK AO2 PK WND 30029/1125 SLP146 60008 70035 T01110078 10150 20111 53008 Follow KPMP on AV Mobile POMPANO BEACH AIRPARK 954-783-3720
K1J3ICAO ID K1J3 Ponce De Leon Inlet
KPGDFAA ID PGD, ASOS, KPGD 071153Z 33012KT 10SM -RA OVC070 09/08 A3005 RMK AO2 RAB13 SLP176 P0001 60001 70043 T00940083 10111 20094 53013 Follow KPGD on AV Mobile PUNTA GORDA CHARLOTTE COUNTY 135.675 941-639-0076
2J9FAA ID 2J9, AWOS-3, KAEJ 071245Z AUTO 28015G22KT 10SM CLR M01/M12 A3025 RMK AO2 T10061118 Follow  on AV Mobile QUINCY 118.975 (850) 627-6264
K1J5ICAO ID K1J5 Santa Rosa Coast Guard Station
KSRQFAA ID SRQ, ASOS, KSRQ 071204Z 33009KT 10SM SCT027 BKN060 OVC090 11/07 A3005 Follow KSRQ on AV Mobile SARASOTA/BRADENTON INTERNATIONAL . 124.375 941-359-0117
KSEFFAA ID SEF, AWOS-3 SEBRING 119.475 863-655-6424
KSGJFAA ID SGJ, AWOS-3, KSGJ 071158Z 33014G21KT 5SM -RA BR BKN007 BKN029 OVC055 06/05 A2999 RMK AO2 SLP155 P0000 60000 7//// T00610050 10067 20061 50003 Follow KSGJ on AV Mobile St. Augustine, St. Augustine Airport 904-824-7084
KPIEFAA ID PIE, ASOS, KPIE 071153Z AUTO 32014G21KT 10SM SCT017 BKN024 OVC030 10/07 A3007 Follow KPIE on AV Mobile ST PETERSBURG/CLEARWATER 727-531-3456
KSPGFAA ID SPG, ASOS, KSPG 071153Z 35011KT 10SM FEW080 SCT110 11/07 A3004 RMK AO2 SLP171 70013 T01060067 10117 20100 53010 Follow KSPG on AV Mobile ST PETERSBURG WHITTED AIRPORT 118.875 727-821-4334
KSUAFAA ID SUA, AWOS-3, KSUA 071115Z AUTO 29018G22KT 10SM 11/06 A2996 RMK AO2 Follow KSUA on AV Mobile Stuart, Witham Field Airport 772-692-7399
KTLHFAA ID TLH, ASOS, KTLH 071153Z 00000KT 10SM FEW250 02/M01 A3013 Follow KTLH on AV Mobile TALLAHASSEE REGIONAL AIRPORT 850-576-3665
KTBWICAO ID KTBW Tampa Bay Area
KMCFFAA ID MCF, KMCF 071228Z AUTO 34010G18KT 10SM -DZ BKN016 OVC028 10/09 A3005 RMK AO2 DZB17E26DZB28 Follow KMCF on AV Mobile Macdill Air Force Base, Fl.
KTPAFAA ID TPA, ASOS, KTPA 071153Z 31007KT 10SM BKN016 OVC024 09/07 A3007 Follow KTPA on AV Mobile TAMPA INTERNATIONAL AIRPORT 813-873-7228
KTPFFAA ID TPF, AWOS-3, KTPF 071235Z AUTO 33006KT 10SM BKN023 OVC028 11/08 A3006 RMK AO2 Follow KTPF on AV Mobile Tampa, Peter O Knight Airport 118.925 813-251-6824
KVDFFAA ID VDF, AWOS-3, KVDF 071235Z AUTO 34005KT 10SM OVC013 10/07 A3006 RMK AO2 Follow KVDF on AV Mobile Tampa, Vandenberg Airport 121.125 813-630-0924
KVLGICAO ID KVLG The Villages
KVVGICAO ID KVVG, KVVG 071215Z AUTO 30009G15KT 10SM 07/07 A2993 RMK A01 Follow KVVG on AV Mobile The Villages
KX68ICAO ID KX68 Titusville, NASA Shuttle Landing Facility
KTIXFAA ID TIX, KTIX 071152Z 30015KT 7SM BKN010 07/06 A2996 RMK FIRST Follow KTIX on AV Mobile Titusville
KX21FAA ID X21, AWOS-3 Titusville, Arthur Dunn Air Park 119.725 321-385-0383
KTTSFAA ID TTS, KTTS 071158Z AUTO 31011G19KT 10SM OVC009 08/06 A2994 RMK AO2 PRESRR SLP143 60002 70063 53006 Follow KTTS on AV Mobile Titusville, NASA Shuttle Landing Facility
KVPSFAA ID VPS, KVPS 071155Z 35009KT 340V080 10SM CLR 02/M05 A3020 RMK AO2A SLP234 T00211055 10052 20019 53006 $ Follow KVPS on AV Mobile Valparaiso / Eglin Air Force Base
KVNCFAA ID VNC, AWOS-3, KVNC 071215Z AUTO 34009G21KT 10SM BKN026 OVC075 12/07 A3007 RMK AO2 Follow KVNC on AV Mobile VENICE 119.275
KX90ICAO ID KX90 Venice Long Range Navigation
KVRBFAA ID VRB, ASOS, KVRB 071213Z 29013KT 10SM BKN013 09/07 A2997 Follow KVRB on AV Mobile VERO BEACH MUNICIPAL AIRPORT 772-978-9535
F45FAA ID F45, AWOS-3, KAEJ 071245Z AUTO 28015G22KT 10SM CLR M01/M12 A3025 RMK AO2 T10061118 Follow  on AV Mobile WEST PALM BEACH 119.975 561-630-6932
KLNAFAA ID LNA, AWOS-3 WEST PALM BEACH 119.925 561-964-0308
KPBIFAA ID PBI, ASOS, KPBI 071153Z 28013KT 10SM BKN015 OVC110 11/08 A2996 Follow KPBI on AV Mobile PALM BEACH INTERNATIONAL 123.75 561-683-2548
FD38FAA ID FD38, Belfort WELLINGTON AERO CLUB
X60FAA ID X60, AWOS-3, KAEJ 071245Z AUTO 28015G22KT 10SM CLR M01/M12 A3025 RMK AO2 T10061118 Follow  on AV Mobile WILLISTON 118.425 352-528-9949
KGIFFAA ID GIF, ASOS, KGIF 071216Z AUTO 31013G20KT 10SM OVC008 07/06 A3004 RMK AO2 CIG 007V011 T00720061 Follow KGIF on AV Mobile WINTER HAVENS GILBERT AIRPORT 133.675 863-956-2097
KZPHFAA ID ZPH, ASOS, KZPH 071235Z AUTO 31006KT 10SM OVC011 07/06 A3006 RMK AO2 LTG DSNT NE T00700055 Follow KZPH on AV Mobile ZEPHYRHILLS 118.975 813-780-0031

Click on the AV Mobile icon AV Mobile icon by any station to follow that AWOS feed on AirportView.net Mobile.

Leaders in ADS-B Avemco Insurance Company